Fordyce, NE (68736)

3:35 AM CST on December 05, 2016 (GMT -0600)
Riverside Acres, along river | | Change Station

Elev 1188 ft 42.85 °N, 97.45 °W | Updated 29 seconds ago

Partly Cloudy
Partly Cloudy
37.8 °F
Feels Like 33 °F
N
6.7
Wind Variable Wind from East
Gusts 7.4 mph

Today
High -- | Low -- °F
--% Chance of Precip.
Yesterday
High -- | Low -- °F
Precip. -- in
Pressure 29.67 in
Visibility 10.0 miles
Clouds Few 12000 ft
Windchill 33 °F
Dew Point 30 °F
Humidity 73%
Rainfall 0.00 in
Snow Depth Not available.
7:44 AM 4:55 PM
Waxing Crescent, 30% visible
METAR KYKN 050915Z AUTO 14007KT 10SM FEW120 01/M04 A2967 RMK AO1
Pressure 29.67 in
Visibility 10.0 miles
Clouds Few 12000 ft
Windchill 33 °F
Dew Point 30 °F
Humidity 73%
Rainfall 0.00 in
Snow Depth Not available.
7:44 AM 4:55 PM
Waxing Crescent, 30% visible
METAR KYKN 050915Z AUTO 14007KT 10SM FEW120 01/M04 A2967 RMK AO1

10-Day Weather Forecast

Almanac

Astronomy

Dec. 05, 2016 Rise Set
Actual Time
Civil Twilight
Nautical Twilight
Astronomical Twilight
Moon
Length of Visible Light
Length of Day
Tomorrow will be .
, % of the Moon is Illuminated

Today's Extremes

State Highs State Lows

Community

WunderPhotos

Upload Photos

1,955,775 photos uploaded!

WunderBlog® & News

Nearby

Air Quality

  Air Quality AQ Index Pollutant
Not available.

Snow Depth

Station Depth Elevation

Earthquake Activity

City Distance Mag. Time & Date
Minimum magnitude displayed is 2.5.

Coastal Water Temperatures

Place Temperature

Stations

Nearby Weather Stations

Station Location Temp. Windchill Dew Point Humidity Wind Precip. Elev Updated Type
                   

Watches & Warnings

There are currently no watches in effect.